UPSVAC Airport Information Service

San Bernardino International Airport

ICAO: KSBD Country: United States
Latitude: 34.1167 Longitude: -117.233
Latest Arrival : UPS1006 (KSDF-KSBD) Latest Departure : UPSJUMP (KSBD-KSDF)


WX CaptureLIVE
Data provided by noaa.gov | Fetched at 16:42:07

METAR : KSBD 191457Z 00000KT 6SM HZ CLR 16/09 A3001

TAF : KSBD 191137Z 1912/2012 VRB04KT P6SM SKC FM192100 26010KT P6SM SKC FM200400 VRB04KT P6SM SKC


Runway Data for KSBD
Data provided by openaviationdata.com

Runway ID Mag Var Hdg Length Elevation Surface ILS Freq ILS Id ILS Slope
6 13 56° 9993 ft 1119 ft Asphalt 109.3 ISBD 3
24 13 236° 9993 ft 1119 ft Asphalt -- -- --

San Bernardino International Airport, United States
Use only for reference purposes



Not for navigational purposes.